createdAt,value
2018-08-22T00:02:02.348Z,99.90
2018-08-22T00:04:31.087Z,99.90
2018-08-22T00:06:59.832Z,99.90
2018-08-22T00:09:28.525Z,99.90
2018-08-22T00:11:57.252Z,99.90
2018-08-22T00:14:25.971Z,99.90
2018-08-22T00:16:54.658Z,99.90
2018-08-22T00:19:23.342Z,99.90
2018-08-22T00:21:51.982Z,99.90
2018-08-22T00:24:20.714Z,99.90
2018-08-22T00:26:49.420Z,99.90
2018-08-22T00:29:18.181Z,99.90
2018-08-22T00:31:46.783Z,99.90
2018-08-22T00:34:15.500Z,99.90
2018-08-22T00:36:44.232Z,99.90
2018-08-22T00:39:12.918Z,99.90
2018-08-22T00:41:41.602Z,99.90
2018-08-22T00:44:10.346Z,99.90
2018-08-22T00:46:39.056Z,99.90
2018-08-22T00:49:07.786Z,99.90
2018-08-22T00:51:36.438Z,99.90
2018-08-22T00:54:05.151Z,99.90
2018-08-22T00:56:33.839Z,99.90
2018-08-22T00:59:02.503Z,99.90
2018-08-22T01:01:31.214Z,99.90
2018-08-22T01:03:59.934Z,99.90
2018-08-22T01:06:28.652Z,99.90
2018-08-22T01:08:57.410Z,99.90
2018-08-22T01:11:26.207Z,99.90
2018-08-22T01:13:54.882Z,99.90
2018-08-22T01:16:23.510Z,99.90
2018-08-22T01:18:52.158Z,99.90
2018-08-22T01:21:20.864Z,99.90
2018-08-22T01:23:49.583Z,99.90
2018-08-22T01:26:18.265Z,99.90
2018-08-22T01:28:46.985Z,99.90
2018-08-22T01:31:15.903Z,99.90
2018-08-22T01:33:44.639Z,99.90
2018-08-22T01:36:13.348Z,99.90
2018-08-22T01:38:41.973Z,99.90
2018-08-22T01:41:10.646Z,99.90
2018-08-22T01:43:44.363Z,99.90
2018-08-22T01:46:13.008Z,99.90
2018-08-22T01:48:41.811Z,99.90
2018-08-22T01:51:10.522Z,99.90
2018-08-22T01:53:39.167Z,99.90
2018-08-22T01:56:07.848Z,99.90
2018-08-22T01:58:36.633Z,99.90
2018-08-22T02:01:05.334Z,99.90
2018-08-22T02:03:34.071Z,99.90
2018-08-22T02:06:02.755Z,99.90
2018-08-22T02:08:31.400Z,99.90
2018-08-22T02:11:00.175Z,99.90
2018-08-22T02:13:28.863Z,99.90
2018-08-22T02:15:57.543Z,99.90
2018-08-22T02:18:26.174Z,99.90
2018-08-22T02:20:54.827Z,99.90
2018-08-22T02:23:23.606Z,99.90
2018-08-22T02:25:52.291Z,99.90
2018-08-22T02:28:21.000Z,99.90
2018-08-22T02:30:49.672Z,99.90
2018-08-22T02:33:18.383Z,99.90
2018-08-22T02:35:47.337Z,99.90
2018-08-22T02:38:21.134Z,99.90
2018-08-22T02:40:49.830Z,99.90
2018-08-22T02:43:18.463Z,99.90
2018-08-22T02:45:47.136Z,99.90
2018-08-22T02:48:16.105Z,99.90
2018-08-22T02:50:44.723Z,99.90
2018-08-22T02:53:13.430Z,99.90
2018-08-22T02:55:42.415Z,99.90
2018-08-22T02:58:11.047Z,99.90
2018-08-22T03:00:39.745Z,99.90
2018-08-22T03:03:08.443Z,99.90
2018-08-22T03:05:37.104Z,99.90
2018-08-22T03:08:05.839Z,99.90
2018-08-22T03:10:34.529Z,99.90
2018-08-22T03:13:03.354Z,99.90
2018-08-22T03:15:31.959Z,99.90
2018-08-22T03:18:00.628Z,99.90
2018-08-22T03:20:29.354Z,99.90
2018-08-22T03:22:58.015Z,99.90
2018-08-22T03:25:26.759Z,99.90
2018-08-22T03:27:55.431Z,99.90
2018-08-22T03:30:24.187Z,99.90
2018-08-22T03:32:52.832Z,99.90
2018-08-22T03:35:21.510Z,99.90
2018-08-22T03:37:50.127Z,99.90
2018-08-22T03:40:18.810Z,99.90
2018-08-22T03:42:47.522Z,99.90
2018-08-22T03:45:16.241Z,99.90
2018-08-22T03:47:44.911Z,99.90
2018-08-22T03:50:13.567Z,99.90
2018-08-22T03:52:42.238Z,99.90
2018-08-22T03:55:10.954Z,99.90
2018-08-22T03:57:40.496Z,99.90
2018-08-22T04:00:09.466Z,99.90
2018-08-22T04:02:38.194Z,99.90
2018-08-22T04:05:06.822Z,99.90
2018-08-22T04:07:35.485Z,99.90
2018-08-22T04:10:04.373Z,99.90
2018-08-22T04:12:33.059Z,99.90
2018-08-22T04:15:01.872Z,99.90
2018-08-22T04:17:36.080Z,99.90
2018-08-22T04:20:04.944Z,99.90
2018-08-22T04:22:33.624Z,99.90
2018-08-22T04:25:02.232Z,99.90
2018-08-22T04:27:30.939Z,99.90
2018-08-22T04:29:59.580Z,99.90
2018-08-22T04:32:28.318Z,99.90
2018-08-22T04:34:57.062Z,99.90
2018-08-22T04:37:26.019Z,99.90
2018-08-22T04:39:54.595Z,99.90
2018-08-22T04:42:23.182Z,99.90
2018-08-22T04:44:51.782Z,99.90
2018-08-22T04:47:20.440Z,99.90
2018-08-22T04:49:48.992Z,99.90
2018-08-22T04:52:17.935Z,99.90
2018-08-22T04:54:46.915Z,99.90
2018-08-22T04:57:15.526Z,99.90
2018-08-22T04:59:44.145Z,99.90
2018-08-22T05:02:12.712Z,99.90
2018-08-22T05:04:41.295Z,99.90
2018-08-22T05:07:09.906Z,99.90
2018-08-22T05:09:38.547Z,99.90
2018-08-22T05:12:07.182Z,99.90
2018-08-22T05:14:35.830Z,99.90
2018-08-22T05:17:04.386Z,99.90
2018-08-22T05:19:32.950Z,99.90
2018-08-22T05:22:01.536Z,99.90
2018-08-22T05:24:30.179Z,99.90
2018-08-22T05:26:58.807Z,99.90
2018-08-22T05:29:27.543Z,99.90
2018-08-22T05:31:58.422Z,99.90
2018-08-22T05:34:27.551Z,99.90
2018-08-22T05:36:56.128Z,99.90
2018-08-22T05:39:24.686Z,99.90
2018-08-22T05:41:53.327Z,99.90
2018-08-22T05:44:22.014Z,99.90
2018-08-22T05:46:50.672Z,99.90
2018-08-22T05:49:19.333Z,99.90
2018-08-22T05:51:47.930Z,99.90
2018-08-22T05:54:16.514Z,99.90
2018-08-22T05:56:45.103Z,99.90
2018-08-22T05:59:13.727Z,99.90
2018-08-22T06:01:42.339Z,99.90
2018-08-22T06:04:11.006Z,99.90
2018-08-22T06:06:39.621Z,99.90
2018-08-22T06:09:11.005Z,99.90
2018-08-22T06:11:39.606Z,99.90
2018-08-22T06:14:08.211Z,99.90
2018-08-22T06:16:37.016Z,99.90
2018-08-22T06:19:05.767Z,99.90
2018-08-22T06:21:34.447Z,99.90
2018-08-22T06:24:03.046Z,99.90
2018-08-22T06:26:32.587Z,99.90
2018-08-22T06:29:01.445Z,99.90
2018-08-22T06:31:30.167Z,99.90
2018-08-22T06:33:58.877Z,99.90
2018-08-22T06:36:27.894Z,99.90
2018-08-22T06:38:56.586Z,99.90
2018-08-22T06:41:25.240Z,99.90
2018-08-22T06:43:53.915Z,99.90
2018-08-22T06:46:22.635Z,99.90
2018-08-22T06:48:51.254Z,99.90
2018-08-22T06:51:19.919Z,99.90
2018-08-22T06:53:48.618Z,99.90
2018-08-22T06:56:17.518Z,99.90
2018-08-22T06:58:46.238Z,99.90
2018-08-22T07:01:15.288Z,99.90
2018-08-22T07:03:44.200Z,99.90
2018-08-22T07:06:12.899Z,99.90
2018-08-22T07:08:41.585Z,99.90
2018-08-22T07:11:10.286Z,99.90
2018-08-22T07:13:38.927Z,99.90
2018-08-22T07:16:07.643Z,99.90
2018-08-22T07:18:36.387Z,99.90
2018-08-22T07:21:05.181Z,99.90
2018-08-22T07:23:33.776Z,99.90
2018-08-22T07:26:02.418Z,99.90
2018-08-22T07:28:31.256Z,99.90
2018-08-22T07:30:59.994Z,99.90
2018-08-22T07:33:28.751Z,99.90
2018-08-22T07:35:57.427Z,99.90
2018-08-22T07:38:26.643Z,99.90
2018-08-22T07:40:55.315Z,99.90
2018-08-22T07:43:23.977Z,99.90
2018-08-22T07:45:52.672Z,99.90
2018-08-22T07:48:21.316Z,99.90
2018-08-22T07:50:50.002Z,99.90
2018-08-22T07:53:18.942Z,99.90
2018-08-22T07:55:47.708Z,99.90
2018-08-22T07:58:16.430Z,99.90
2018-08-22T08:00:45.110Z,99.90
2018-08-22T08:03:13.783Z,99.90
2018-08-22T08:05:42.490Z,99.90
2018-08-22T08:08:11.263Z,99.90
2018-08-22T08:10:39.937Z,99.90
2018-08-22T08:13:13.959Z,99.90
2018-08-22T08:15:43.006Z,99.90
2018-08-22T08:18:11.709Z,99.70
2018-08-22T08:20:40.407Z,98.90
2018-08-22T08:23:09.144Z,97.70
2018-08-22T08:25:37.915Z,96.40
2018-08-22T08:28:06.727Z,96.50
2018-08-22T08:30:35.522Z,96.20
2018-08-22T08:33:04.423Z,96.70
2018-08-22T08:35:33.207Z,95.90
2018-08-22T08:38:02.020Z,93.20
2018-08-22T08:40:30.744Z,93.50
2018-08-22T08:42:59.463Z,93.00
2018-08-22T08:45:28.086Z,93.00
2018-08-22T08:47:56.855Z,92.60
2018-08-22T08:50:25.780Z,92.70
2018-08-22T08:52:54.525Z,91.80
2018-08-22T08:55:23.275Z,91.30
2018-08-22T08:57:51.982Z,90.70
2018-08-22T09:00:20.689Z,90.60
2018-08-22T09:02:49.436Z,90.70
2018-08-22T09:05:18.262Z,88.90
2018-08-22T09:07:46.993Z,89.90
2018-08-22T09:10:15.680Z,90.00
2018-08-22T09:12:44.443Z,90.30
2018-08-22T09:15:13.127Z,89.40
2018-08-22T09:17:41.924Z,89.10
2018-08-22T09:20:11.436Z,87.90
2018-08-22T09:22:40.096Z,89.30
2018-08-22T09:25:08.898Z,88.40
2018-08-22T09:27:37.566Z,88.20
2018-08-22T09:30:28.096Z,87.70
2018-08-22T09:32:56.859Z,88.80
2018-08-22T09:35:25.712Z,88.00
2018-08-22T09:37:54.365Z,86.80
2018-08-22T09:40:23.029Z,88.30
2018-08-22T09:42:51.625Z,90.90
2018-08-22T09:45:20.462Z,90.10
2018-08-22T09:47:49.210Z,90.00
2018-08-22T09:50:18.002Z,89.20
2018-08-22T09:52:47.023Z,88.70
2018-08-22T09:55:15.798Z,85.30
2018-08-22T09:57:44.491Z,85.70
2018-08-22T10:00:18.405Z,86.00
2018-08-22T10:02:47.286Z,85.90
2018-08-22T10:05:16.012Z,85.10
2018-08-22T10:07:44.730Z,85.50
2018-08-22T10:10:13.471Z,83.80
2018-08-22T10:12:47.255Z,81.30
2018-08-22T10:15:15.927Z,82.40
2018-08-22T10:17:44.638Z,80.60
2018-08-22T10:20:13.527Z,77.40
2018-08-22T10:22:42.278Z,77.90
2018-08-22T10:25:10.999Z,77.00
2018-08-22T10:27:39.774Z,76.30
2018-08-22T10:30:08.710Z,76.50
2018-08-22T10:32:37.439Z,77.50
2018-08-22T10:35:06.451Z,76.20
2018-08-22T10:37:35.275Z,76.20
2018-08-22T10:40:03.936Z,76.90
2018-08-22T10:42:33.279Z,77.10
2018-08-22T10:45:02.052Z,75.30
2018-08-22T10:47:30.831Z,75.60
2018-08-22T10:49:59.780Z,77.30
2018-08-22T10:52:28.519Z,78.70
2018-08-22T10:54:57.261Z,77.40
2018-08-22T10:57:25.987Z,78.40
2018-08-22T10:59:54.739Z,77.30
2018-08-22T11:02:23.815Z,77.60
2018-08-22T11:04:52.595Z,76.90
2018-08-22T11:07:21.358Z,75.40
2018-08-22T11:09:50.289Z,75.60
2018-08-22T11:12:19.020Z,75.10
2018-08-22T11:14:47.721Z,73.80
2018-08-22T11:17:16.387Z,73.40
2018-08-22T11:19:45.010Z,72.20
2018-08-22T11:22:24.758Z,72.00
2018-08-22T11:25:04.783Z,71.80
2018-08-22T11:27:44.423Z,72.50
2018-08-22T11:30:24.203Z,73.50
2018-08-22T11:33:08.907Z,73.00
2018-08-22T11:35:36.422Z,74.60
2018-08-22T11:38:05.172Z,75.10
2018-08-22T11:40:33.820Z,74.50
2018-08-22T11:43:07.523Z,73.80
2018-08-22T11:45:36.511Z,73.00
2018-08-22T11:48:05.278Z,73.50
2018-08-22T11:50:33.991Z,73.20
2018-08-22T11:53:02.802Z,71.70
2018-08-22T11:55:31.515Z,72.30
2018-08-22T11:58:00.163Z,71.50
2018-08-22T12:00:28.898Z,69.80
2018-08-22T12:02:57.583Z,70.60
2018-08-22T12:05:26.272Z,68.40
2018-08-22T12:07:55.031Z,68.00
2018-08-22T12:10:27.900Z,70.00
2018-08-22T12:12:56.619Z,71.20
2018-08-22T12:15:25.342Z,71.50
2018-08-22T12:17:54.252Z,69.70
2018-08-22T12:20:23.063Z,68.30
2018-08-22T12:22:52.176Z,68.60
2018-08-22T12:25:21.054Z,67.50
2018-08-22T12:27:49.719Z,66.10
2018-08-22T12:30:18.383Z,65.40
2018-08-22T12:32:47.050Z,66.10
2018-08-22T12:35:15.794Z,64.70
2018-08-22T12:37:44.530Z,65.80
2018-08-22T12:40:13.158Z,64.30
2018-08-22T12:42:41.801Z,65.10
2018-08-22T12:45:10.490Z,65.70
2018-08-22T12:47:39.235Z,64.40
2018-08-22T12:50:07.911Z,64.00
2018-08-22T12:52:36.743Z,64.50
2018-08-22T12:55:05.499Z,65.20
2018-08-22T12:57:34.511Z,66.60
2018-08-22T13:00:03.267Z,67.10
2018-08-22T13:02:32.000Z,67.50
2018-08-22T13:05:00.753Z,66.00
2018-08-22T13:07:30.142Z,65.50
2018-08-22T13:09:58.875Z,64.40
2018-08-22T13:12:27.503Z,63.90
2018-08-22T13:14:56.159Z,63.20
2018-08-22T13:17:24.832Z,61.30
2018-08-22T13:19:53.522Z,61.00
2018-08-22T13:22:22.151Z,60.60
2018-08-22T13:24:50.843Z,60.00
2018-08-22T13:27:19.483Z,61.00
2018-08-22T13:29:48.209Z,60.50
2018-08-22T13:32:16.940Z,58.20
2018-08-22T13:34:45.676Z,57.80
2018-08-22T13:37:14.350Z,58.20
2018-08-22T13:39:42.999Z,58.20
2018-08-22T13:42:11.702Z,57.30
2018-08-22T13:44:40.410Z,57.10
2018-08-22T13:47:09.114Z,56.30
2018-08-22T13:49:37.891Z,57.30
2018-08-22T13:52:06.683Z,57.50
2018-08-22T13:54:35.405Z,57.20
2018-08-22T13:57:04.119Z,57.50
2018-08-22T13:59:32.746Z,57.80
2018-08-22T14:02:01.319Z,57.70
2018-08-22T14:04:29.894Z,57.30
2018-08-22T14:06:58.487Z,57.10
2018-08-22T14:09:27.071Z,56.70
2018-08-22T14:11:55.978Z,55.40
2018-08-22T14:14:24.643Z,56.30
2018-08-22T14:16:53.304Z,56.20
2018-08-22T14:19:21.940Z,55.00
2018-08-22T14:21:50.818Z,56.00
2018-08-22T14:24:19.447Z,55.90
2018-08-22T14:26:48.175Z,57.30
2018-08-22T14:29:16.837Z,57.70
2018-08-22T14:31:45.663Z,57.90
2018-08-22T14:34:14.281Z,58.90
2018-08-22T14:36:42.855Z,60.00
2018-08-22T14:39:12.551Z,60.50
2018-08-22T14:41:41.484Z,61.00
2018-08-22T14:44:10.231Z,61.10
2018-08-22T14:46:38.950Z,60.30
2018-08-22T14:49:07.583Z,61.80
2018-08-22T14:51:36.450Z,61.00
2018-08-22T14:54:05.249Z,60.30
2018-08-22T14:56:33.964Z,63.00
2018-08-22T14:59:02.491Z,64.30
2018-08-22T15:01:31.117Z,60.00
2018-08-22T15:03:59.799Z,60.90
2018-08-22T15:06:28.382Z,60.60
2018-08-22T15:09:04.608Z,59.10
2018-08-22T15:11:34.849Z,59.30
2018-08-22T15:14:03.667Z,58.70
2018-08-22T15:16:32.441Z,58.60
2018-08-22T15:19:01.084Z,59.30
2018-08-22T15:21:29.661Z,60.10
2018-08-22T15:23:58.281Z,60.70
2018-08-22T15:26:26.951Z,61.40
2018-08-22T15:28:55.642Z,60.70
2018-08-22T15:31:24.315Z,61.80
2018-08-22T15:33:52.896Z,62.80
2018-08-22T15:36:21.696Z,64.70
2018-08-22T15:38:50.426Z,65.00
2018-08-22T15:41:19.247Z,65.70
2018-08-22T15:43:47.859Z,65.60
2018-08-22T15:46:16.592Z,65.40
2018-08-22T15:48:45.305Z,66.50
2018-08-22T15:51:14.103Z,67.40
2018-08-22T15:53:42.875Z,67.40
2018-08-22T15:56:11.474Z,67.10
2018-08-22T15:58:40.289Z,67.70
2018-08-22T16:01:08.975Z,68.20
2018-08-22T16:03:37.628Z,69.60
2018-08-22T16:06:06.259Z,71.30
2018-08-22T16:08:34.927Z,72.60
2018-08-22T16:11:06.920Z,72.00
2018-08-22T16:13:36.450Z,71.70
2018-08-22T16:16:05.023Z,72.70
2018-08-22T16:18:34.736Z,72.90
2018-08-22T16:21:04.651Z,73.90
2018-08-22T16:23:34.716Z,73.60
2018-08-22T16:26:04.507Z,73.70
2018-08-22T16:28:44.727Z,74.40
2018-08-22T16:31:13.648Z,75.00
2018-08-22T16:33:47.371Z,75.30
2018-08-22T16:36:21.392Z,75.50
2018-08-22T16:38:50.084Z,76.70
2018-08-22T16:41:18.831Z,76.80
2018-08-22T16:43:49.467Z,77.00
2018-08-22T16:46:18.774Z,77.60
2018-08-22T16:48:51.119Z,78.50
2018-08-22T16:51:20.938Z,78.50
2018-08-22T16:54:00.774Z,78.00
2018-08-22T16:56:30.725Z,77.20
2018-08-22T16:59:04.818Z,76.60
2018-08-22T17:01:33.451Z,77.10
2018-08-22T17:04:02.277Z,74.10
2018-08-22T17:06:30.982Z,71.40
2018-08-22T17:08:59.803Z,72.70
2018-08-22T17:11:28.557Z,72.90
2018-08-22T17:13:57.327Z,71.40
2018-08-22T17:16:26.323Z,69.50
2018-08-22T17:18:55.235Z,69.20
2018-08-22T17:21:24.112Z,70.00
2018-08-22T17:23:52.747Z,69.10
2018-08-22T17:26:22.448Z,66.60
2018-08-22T17:28:52.599Z,64.20
2018-08-22T17:31:22.164Z,64.80
2018-08-22T17:33:56.187Z,72.20
2018-08-22T17:36:24.995Z,74.50
2018-08-22T17:38:54.862Z,75.00
2018-08-22T17:41:24.655Z,76.70
2018-08-22T17:44:13.574Z,76.20
2018-08-22T17:46:47.719Z,76.40
2018-08-22T17:49:16.420Z,76.90
2018-08-22T17:52:06.322Z,77.60
2018-08-22T17:54:35.151Z,78.70
2018-08-22T17:57:16.080Z,80.00
2018-08-22T17:59:45.268Z,79.50
2018-08-22T18:02:14.033Z,79.30
2018-08-22T18:04:52.388Z,80.00
2018-08-22T18:07:21.116Z,79.20
2018-08-22T18:09:50.320Z,81.10
2018-08-22T18:12:19.658Z,81.50
2018-08-22T18:14:48.347Z,81.30
2018-08-22T18:17:19.021Z,81.10
2018-08-22T18:19:47.934Z,77.20
2018-08-22T18:22:16.678Z,73.30
2018-08-22T18:24:53.521Z,71.20
2018-08-22T18:27:22.200Z,71.50
2018-08-22T18:29:50.963Z,71.80
2018-08-22T18:32:19.855Z,72.80
2018-08-22T18:35:07.617Z,72.50
2018-08-22T18:37:36.444Z,72.20
2018-08-22T18:40:19.933Z,72.90
2018-08-22T18:42:50.797Z,72.20
2018-08-22T18:45:20.080Z,72.60
2018-08-22T18:47:48.783Z,74.50
2018-08-22T18:50:17.607Z,77.10
2018-08-22T18:52:47.943Z,78.50
2018-08-22T18:55:16.560Z,79.60
2018-08-22T18:57:45.488Z,80.60
2018-08-22T19:00:14.223Z,82.40
2018-08-22T19:02:42.954Z,83.80
2018-08-22T19:05:21.765Z,82.90
2018-08-22T19:08:02.453Z,84.90
2018-08-22T19:10:33.092Z,86.10
2018-08-22T19:13:06.882Z,86.30
2018-08-22T19:15:36.060Z,89.30
2018-08-22T19:18:05.765Z,89.70
2018-08-22T19:20:34.696Z,90.20
2018-08-22T19:23:03.589Z,91.50
2018-08-22T19:25:32.507Z,92.30
2018-08-22T19:28:02.044Z,92.70
2018-08-22T19:30:30.909Z,95.00
2018-08-22T19:32:59.582Z,96.20
2018-08-22T19:35:28.308Z,97.70
2018-08-22T19:38:02.169Z,99.90
2018-08-22T19:40:30.846Z,99.90
2018-08-22T19:42:59.819Z,99.90
2018-08-22T19:45:28.570Z,99.90
2018-08-22T19:47:57.206Z,99.90
2018-08-22T19:50:26.180Z,99.90
2018-08-22T19:52:54.909Z,99.90
2018-08-22T19:55:23.504Z,99.90
2018-08-22T19:57:52.219Z,99.90
2018-08-22T20:00:20.869Z,99.90
2018-08-22T20:02:49.559Z,99.90
2018-08-22T20:05:18.248Z,99.90
2018-08-22T20:07:47.032Z,99.90
2018-08-22T20:10:15.695Z,99.90
2018-08-22T20:12:48.234Z,99.90
2018-08-22T20:15:16.863Z,99.90
2018-08-22T20:17:48.298Z,99.90
2018-08-22T20:20:17.523Z,99.90
2018-08-22T20:22:47.729Z,99.90
2018-08-22T20:25:16.318Z,99.90
2018-08-22T20:27:45.019Z,99.90
2018-08-22T20:30:17.605Z,99.90
2018-08-22T20:33:10.292Z,99.90
2018-08-22T20:35:40.874Z,99.90
2018-08-22T20:38:11.548Z,99.90
2018-08-22T20:40:40.229Z,99.90
2018-08-22T20:43:14.959Z,99.90
2018-08-22T20:45:44.513Z,99.90
2018-08-22T20:48:14.363Z,99.90
2018-08-22T20:50:45.058Z,99.90
2018-08-22T20:53:17.382Z,99.90
2018-08-22T20:55:46.145Z,99.90
2018-08-22T20:58:19.909Z,99.90
2018-08-22T21:00:48.672Z,99.90
2018-08-22T21:03:19.231Z,99.90
2018-08-22T21:05:47.946Z,99.90
2018-08-22T21:08:16.671Z,99.90
2018-08-22T21:10:45.329Z,99.90
2018-08-22T21:13:24.118Z,99.90
2018-08-22T21:15:52.838Z,99.90
2018-08-22T21:18:21.611Z,99.90
2018-08-22T21:20:50.423Z,99.90
2018-08-22T21:23:19.088Z,99.90
2018-08-22T21:25:47.695Z,99.90
2018-08-22T21:28:16.571Z,99.90
2018-08-22T21:30:50.364Z,99.90
2018-08-22T21:33:19.083Z,99.90
2018-08-22T21:35:47.823Z,99.90
2018-08-22T21:38:18.509Z,99.90
2018-08-22T21:40:47.234Z,99.90
2018-08-22T21:43:15.935Z,99.90
2018-08-22T21:45:45.684Z,99.90
2018-08-22T21:48:19.248Z,99.90
2018-08-22T21:50:47.971Z,99.90
2018-08-22T21:53:21.680Z,99.90
2018-08-22T21:55:51.554Z,99.90
2018-08-22T21:58:20.223Z,99.90
2018-08-22T22:00:48.891Z,99.90
2018-08-22T22:03:22.815Z,99.90
2018-08-22T22:06:09.161Z,99.90
2018-08-22T22:08:43.250Z,99.90
2018-08-22T22:11:11.923Z,99.90
2018-08-22T22:13:40.660Z,99.90
2018-08-22T22:16:09.371Z,99.90
2018-08-22T22:18:38.088Z,99.90
2018-08-22T22:21:12.748Z,99.90
2018-08-22T22:23:48.332Z,99.90
2018-08-22T22:26:18.195Z,99.90
2018-08-22T22:28:46.824Z,99.90
2018-08-22T22:31:16.648Z,99.90
2018-08-22T22:33:58.502Z,99.90
2018-08-22T22:36:27.320Z,99.90
2018-08-22T22:38:56.050Z,99.90
2018-08-22T22:41:28.238Z,99.90
2018-08-22T22:44:01.899Z,99.90
2018-08-22T22:46:30.563Z,99.90
2018-08-22T22:48:59.286Z,99.90
2018-08-22T22:51:27.939Z,99.90
2018-08-22T22:53:56.664Z,99.90
2018-08-22T22:56:25.427Z,99.90
2018-08-22T22:58:54.212Z,99.90
2018-08-22T23:01:22.878Z,99.90
2018-08-22T23:03:51.653Z,99.90
2018-08-22T23:06:20.399Z,99.90
2018-08-22T23:08:49.136Z,99.90
2018-08-22T23:11:17.790Z,99.90
2018-08-22T23:13:46.527Z,99.90
2018-08-22T23:16:15.427Z,99.90
2018-08-22T23:18:44.052Z,99.90
2018-08-22T23:21:12.768Z,99.90
2018-08-22T23:23:41.610Z,99.90
2018-08-22T23:26:15.829Z,99.90
2018-08-22T23:28:45.529Z,99.90
2018-08-22T23:31:16.690Z,99.90
2018-08-22T23:33:45.396Z,99.90
2018-08-22T23:36:14.198Z,99.90
2018-08-22T23:38:42.859Z,99.90
2018-08-22T23:41:12.423Z,99.90
2018-08-22T23:43:46.161Z,99.90
2018-08-22T23:46:14.835Z,99.90
2018-08-22T23:48:43.524Z,99.90
2018-08-22T23:51:13.272Z,99.90
2018-08-22T23:53:46.233Z,99.90
2018-08-22T23:56:19.666Z,99.90
2018-08-22T23:58:49.023Z,99.90
